Terminal Aerodrome Forecast
Issued by NWS Flagstaff, AZ

Home | Current Version | Previous Version | Text Only | Print | Product List | Glossary On
Versions: 1 2 3 4 5 6 7 8 9 10 11 12 13 14 15 16 17
000
FTUS45 KFGZ 301100
TAFINW
TAF
KINW 301137Z 3012/3112 VRB06KT P6SM FEW110
     FM302000 25010G18KT P6SM SCT100
     FM310300 23009KT P6SM FEW100
     FM310900 VRB05KT P6SM SKC=

USA.gov is the U.S. government's official web portal to all federal, state and local government web resources and services.